sensor_id;sensor_type;location;lat;lon;timestamp;temperature;humidity
4578;DHT22;2301;47.354;8.528;2022-12-07T00:01:17;12.70;78.80
4578;DHT22;2301;47.354;8.528;2022-12-07T00:03:46;12.80;78.40
4578;DHT22;2301;47.354;8.528;2022-12-07T00:06:14;12.80;78.00
4578;DHT22;2301;47.354;8.528;2022-12-07T00:08:42;12.80;77.70
4578;DHT22;2301;47.354;8.528;2022-12-07T00:11:12;12.70;77.00
4578;DHT22;2301;47.354;8.528;2022-12-07T00:13:40;12.70;76.50
4578;DHT22;2301;47.354;8.528;2022-12-07T00:16:10;12.70;76.40
4578;DHT22;2301;47.354;8.528;2022-12-07T00:18:37;12.70;76.40
4578;DHT22;2301;47.354;8.528;2022-12-07T00:21:06;12.70;76.30
4578;DHT22;2301;47.354;8.528;2022-12-07T00:23:34;12.70;76.10
4578;DHT22;2301;47.354;8.528;2022-12-07T00:26:05;12.70;75.80
4578;DHT22;2301;47.354;8.528;2022-12-07T00:28:34;12.80;76.00
4578;DHT22;2301;47.354;8.528;2022-12-07T00:31:03;12.70;75.50
4578;DHT22;2301;47.354;8.528;2022-12-07T00:33:30;12.70;75.50
4578;DHT22;2301;47.354;8.528;2022-12-07T00:35:59;12.70;75.10
4578;DHT22;2301;47.354;8.528;2022-12-07T00:38:27;12.60;74.20
4578;DHT22;2301;47.354;8.528;2022-12-07T00:40:56;12.60;74.10
4578;DHT22;2301;47.354;8.528;2022-12-07T00:43:23;12.60;74.50
4578;DHT22;2301;47.354;8.528;2022-12-07T00:45:52;12.60;74.90
4578;DHT22;2301;47.354;8.528;2022-12-07T00:48:20;12.70;75.00
4578;DHT22;2301;47.354;8.528;2022-12-07T00:50:47;12.70;74.20
4578;DHT22;2301;47.354;8.528;2022-12-07T00:53:15;12.70;74.10
4578;DHT22;2301;47.354;8.528;2022-12-07T00:55:42;12.70;73.60
4578;DHT22;2301;47.354;8.528;2022-12-07T00:58:10;12.70;73.40
4578;DHT22;2301;47.354;8.528;2022-12-07T01:00:39;12.60;72.30
4578;DHT22;2301;47.354;8.528;2022-12-07T01:03:10;12.60;72.70
4578;DHT22;2301;47.354;8.528;2022-12-07T01:05:37;12.60;72.60
4578;DHT22;2301;47.354;8.528;2022-12-07T01:08:05;12.60;72.30
4578;DHT22;2301;47.354;8.528;2022-12-07T01:10:33;12.50;72.00
4578;DHT22;2301;47.354;8.528;2022-12-07T01:13:00;12.50;72.10
4578;DHT22;2301;47.354;8.528;2022-12-07T01:15:27;12.50;72.10
4578;DHT22;2301;47.354;8.528;2022-12-07T01:17:54;12.40;71.60
4578;DHT22;2301;47.354;8.528;2022-12-07T01:20:23;12.30;70.60
4578;DHT22;2301;47.354;8.528;2022-12-07T01:22:49;12.30;72.10
4578;DHT22;2301;47.354;8.528;2022-12-07T01:25:17;12.30;72.30
4578;DHT22;2301;47.354;8.528;2022-12-07T01:27:44;12.40;72.40
4578;DHT22;2301;47.354;8.528;2022-12-07T01:30:13;12.40;71.80
4578;DHT22;2301;47.354;8.528;2022-12-07T01:32:40;12.40;72.00
4578;DHT22;2301;47.354;8.528;2022-12-07T01:35:08;12.40;71.90
4578;DHT22;2301;47.354;8.528;2022-12-07T01:37:37;12.40;71.50
4578;DHT22;2301;47.354;8.528;2022-12-07T01:40:06;12.40;71.30
4578;DHT22;2301;47.354;8.528;2022-12-07T01:42:34;12.40;71.20
4578;DHT22;2301;47.354;8.528;2022-12-07T01:48:13;12.20;70.80
4578;DHT22;2301;47.354;8.528;2022-12-07T01:50:42;12.20;71.30
4578;DHT22;2301;47.354;8.528;2022-12-07T01:53:13;12.30;71.90
4578;DHT22;2301;47.354;8.528;2022-12-07T01:55:42;12.40;71.30
4578;DHT22;2301;47.354;8.528;2022-12-07T01:58:11;12.40;70.80
4578;DHT22;2301;47.354;8.528;2022-12-07T02:00:39;12.40;70.70
4578;DHT22;2301;47.354;8.528;2022-12-07T02:03:11;12.40;71.70
4578;DHT22;2301;47.354;8.528;2022-12-07T02:05:41;12.40;70.70
4578;DHT22;2301;47.354;8.528;2022-12-07T02:08:12;12.30;70.20
4578;DHT22;2301;47.354;8.528;2022-12-07T02:10:40;12.30;69.80
4578;DHT22;2301;47.354;8.528;2022-12-07T02:13:10;12.30;69.90
4578;DHT22;2301;47.354;8.528;2022-12-07T02:15:56;12.20;69.40
4578;DHT22;2301;47.354;8.528;2022-12-07T02:18:35;12.20;70.10
4578;DHT22;2301;47.354;8.528;2022-12-07T02:21:08;12.20;70.10
4578;DHT22;2301;47.354;8.528;2022-12-07T02:23:56;12.20;70.10
4578;DHT22;2301;47.354;8.528;2022-12-07T02:29:37;12.20;70.20
4578;DHT22;2301;47.354;8.528;2022-12-07T02:32:08;12.20;70.50
4578;DHT22;2301;47.354;8.528;2022-12-07T02:34:44;12.20;70.20
4578;DHT22;2301;47.354;8.528;2022-12-07T02:37:21;12.30;71.20
4578;DHT22;2301;47.354;8.528;2022-12-07T02:39:54;12.30;69.40
4578;DHT22;2301;47.354;8.528;2022-12-07T02:42:25;12.20;69.10
4578;DHT22;2301;47.354;8.528;2022-12-07T02:44:56;12.20;69.20
4578;DHT22;2301;47.354;8.528;2022-12-07T02:47:24;12.10;69.20
4578;DHT22;2301;47.354;8.528;2022-12-07T02:49:52;12.10;69.40
4578;DHT22;2301;47.354;8.528;2022-12-07T02:52:19;12.20;69.90
4578;DHT22;2301;47.354;8.528;2022-12-07T02:54:46;12.20;70.00
4578;DHT22;2301;47.354;8.528;2022-12-07T02:57:25;12.30;69.70
4578;DHT22;2301;47.354;8.528;2022-12-07T03:00:03;12.30;69.70
4578;DHT22;2301;47.354;8.528;2022-12-07T03:02:38;12.30;68.90
4578;DHT22;2301;47.354;8.528;2022-12-07T03:05:38;12.30;69.00
4578;DHT22;2301;47.354;8.528;2022-12-07T03:08:15;12.20;68.20
4578;DHT22;2301;47.354;8.528;2022-12-07T03:10:53;12.20;68.90
4578;DHT22;2301;47.354;8.528;2022-12-07T03:13:25;12.20;68.80
4578;DHT22;2301;47.354;8.528;2022-12-07T03:16:00;12.20;67.70
4578;DHT22;2301;47.354;8.528;2022-12-07T03:18:32;12.20;68.50
4578;DHT22;2301;47.354;8.528;2022-12-07T03:21:04;12.20;68.40
4578;DHT22;2301;47.354;8.528;2022-12-07T03:23:33;12.10;67.60
4578;DHT22;2301;47.354;8.528;2022-12-07T03:26:03;12.20;68.20
4578;DHT22;2301;47.354;8.528;2022-12-07T03:28:34;12.10;67.60
4578;DHT22;2301;47.354;8.528;2022-12-07T03:31:10;12.10;67.30
4578;DHT22;2301;47.354;8.528;2022-12-07T03:33:44;12.10;67.60
4578;DHT22;2301;47.354;8.528;2022-12-07T03:36:17;12.00;67.80
4578;DHT22;2301;47.354;8.528;2022-12-07T03:38:49;12.00;67.70
4578;DHT22;2301;47.354;8.528;2022-12-07T03:41:22;12.00;68.10
4578;DHT22;2301;47.354;8.528;2022-12-07T03:43:51;12.10;67.20
4578;DHT22;2301;47.354;8.528;2022-12-07T03:46:27;12.10;67.30
4578;DHT22;2301;47.354;8.528;2022-12-07T03:49:00;12.10;67.60
4578;DHT22;2301;47.354;8.528;2022-12-07T03:51:36;12.00;66.80
4578;DHT22;2301;47.354;8.528;2022-12-07T03:54:09;12.00;67.30
4578;DHT22;2301;47.354;8.528;2022-12-07T03:56:38;12.00;67.60
4578;DHT22;2301;47.354;8.528;2022-12-07T03:59:06;12.00;67.30
4578;DHT22;2301;47.354;8.528;2022-12-07T04:01:35;12.00;67.00
4578;DHT22;2301;47.354;8.528;2022-12-07T04:04:02;12.10;67.90
4578;DHT22;2301;47.354;8.528;2022-12-07T04:06:29;12.10;67.40
4578;DHT22;2301;47.354;8.528;2022-12-07T04:08:56;12.00;66.50
4578;DHT22;2301;47.354;8.528;2022-12-07T04:11:23;12.00;66.00
4578;DHT22;2301;47.354;8.528;2022-12-07T04:13:50;12.00;66.80
4578;DHT22;2301;47.354;8.528;2022-12-07T04:16:36;12.00;66.80
4578;DHT22;2301;47.354;8.528;2022-12-07T04:19:03;12.10;66.60
4578;DHT22;2301;47.354;8.528;2022-12-07T04:21:29;12.10;66.90
4578;DHT22;2301;47.354;8.528;2022-12-07T04:23:56;12.10;66.90
4578;DHT22;2301;47.354;8.528;2022-12-07T04:26:23;12.10;66.80
4578;DHT22;2301;47.354;8.528;2022-12-07T04:28:50;12.10;66.80
4578;DHT22;2301;47.354;8.528;2022-12-07T04:31:17;12.10;66.70
4578;DHT22;2301;47.354;8.528;2022-12-07T04:33:46;12.10;66.60
4578;DHT22;2301;47.354;8.528;2022-12-07T04:36:13;12.10;66.60
4578;DHT22;2301;47.354;8.528;2022-12-07T04:38:40;12.10;66.60
4578;DHT22;2301;47.354;8.528;2022-12-07T04:41:08;12.10;66.50
4578;DHT22;2301;47.354;8.528;2022-12-07T04:43:36;12.20;66.50
4578;DHT22;2301;47.354;8.528;2022-12-07T04:46:03;12.20;66.10
4578;DHT22;2301;47.354;8.528;2022-12-07T04:48:30;12.10;65.50
4578;DHT22;2301;47.354;8.528;2022-12-07T04:50:58;12.10;65.90
4578;DHT22;2301;47.354;8.528;2022-12-07T04:53:25;12.10;66.30
4578;DHT22;2301;47.354;8.528;2022-12-07T04:55:52;12.10;66.60
4578;DHT22;2301;47.354;8.528;2022-12-07T04:58:19;12.10;66.20
4578;DHT22;2301;47.354;8.528;2022-12-07T05:00:46;12.10;66.60
4578;DHT22;2301;47.354;8.528;2022-12-07T05:03:14;12.10;66.30
4578;DHT22;2301;47.354;8.528;2022-12-07T05:05:41;12.10;66.20
4578;DHT22;2301;47.354;8.528;2022-12-07T05:08:09;12.10;66.00
4578;DHT22;2301;47.354;8.528;2022-12-07T05:10:36;12.20;66.00
4578;DHT22;2301;47.354;8.528;2022-12-07T05:13:03;12.20;65.80
4578;DHT22;2301;47.354;8.528;2022-12-07T05:15:30;12.20;65.60
4578;DHT22;2301;47.354;8.528;2022-12-07T05:17:58;12.10;65.80
4578;DHT22;2301;47.354;8.528;2022-12-07T05:20:24;12.20;66.20
4578;DHT22;2301;47.354;8.528;2022-12-07T05:22:51;12.10;65.10
4578;DHT22;2301;47.354;8.528;2022-12-07T05:25:20;12.10;65.30
4578;DHT22;2301;47.354;8.528;2022-12-07T05:27:47;12.10;65.60
4578;DHT22;2301;47.354;8.528;2022-12-07T05:30:14;12.20;65.70
4578;DHT22;2301;47.354;8.528;2022-12-07T05:32:41;12.20;65.20
4578;DHT22;2301;47.354;8.528;2022-12-07T05:35:09;12.10;64.90
4578;DHT22;2301;47.354;8.528;2022-12-07T05:37:36;12.10;65.00
4578;DHT22;2301;47.354;8.528;2022-12-07T05:40:05;12.10;65.10
4578;DHT22;2301;47.354;8.528;2022-12-07T05:42:34;12.10;65.00
4578;DHT22;2301;47.354;8.528;2022-12-07T05:45:01;12.10;65.30
4578;DHT22;2301;47.354;8.528;2022-12-07T05:47:28;12.20;65.40
4578;DHT22;2301;47.354;8.528;2022-12-07T05:49:55;12.20;65.50
4578;DHT22;2301;47.354;8.528;2022-12-07T05:52:22;12.20;65.10
4578;DHT22;2301;47.354;8.528;2022-12-07T05:54:49;12.10;64.40
4578;DHT22;2301;47.354;8.528;2022-12-07T05:57:16;12.10;64.70
4578;DHT22;2301;47.354;8.528;2022-12-07T05:59:45;12.10;65.20
4578;DHT22;2301;47.354;8.528;2022-12-07T06:02:12;12.20;65.50
4578;DHT22;2301;47.354;8.528;2022-12-07T06:04:41;12.20;64.90
4578;DHT22;2301;47.354;8.528;2022-12-07T06:07:09;12.10;64.70
4578;DHT22;2301;47.354;8.528;2022-12-07T06:09:37;12.10;65.40
4578;DHT22;2301;47.354;8.528;2022-12-07T06:12:05;12.20;65.10
4578;DHT22;2301;47.354;8.528;2022-12-07T06:14:51;12.10;64.70
4578;DHT22;2301;47.354;8.528;2022-12-07T06:17:18;12.00;63.20
4578;DHT22;2301;47.354;8.528;2022-12-07T06:19:45;11.60;59.40
4578;DHT22;2301;47.354;8.528;2022-12-07T06:22:12;11.20;58.30
4578;DHT22;2301;47.354;8.528;2022-12-07T06:24:41;10.80;58.10
4578;DHT22;2301;47.354;8.528;2022-12-07T06:27:09;10.40;58.30
4578;DHT22;2301;47.354;8.528;2022-12-07T06:29:36;10.10;58.60
4578;DHT22;2301;47.354;8.528;2022-12-07T06:32:05;9.80;60.10
4578;DHT22;2301;47.354;8.528;2022-12-07T06:34:32;9.60;60.60
4578;DHT22;2301;47.354;8.528;2022-12-07T06:36:59;9.30;61.00
4578;DHT22;2301;47.354;8.528;2022-12-07T06:39:27;9.10;61.50
4578;DHT22;2301;47.354;8.528;2022-12-07T06:41:55;8.90;62.10
4578;DHT22;2301;47.354;8.528;2022-12-07T06:44:23;8.80;62.60
4578;DHT22;2301;47.354;8.528;2022-12-07T06:46:50;8.70;63.10
4578;DHT22;2301;47.354;8.528;2022-12-07T06:49:19;8.60;63.50
4578;DHT22;2301;47.354;8.528;2022-12-07T06:51:46;8.40;63.90
4578;DHT22;2301;47.354;8.528;2022-12-07T06:54:16;8.30;64.20
4578;DHT22;2301;47.354;8.528;2022-12-07T06:56:44;8.20;64.40
4578;DHT22;2301;47.354;8.528;2022-12-07T06:59:11;8.10;64.70
4578;DHT22;2301;47.354;8.528;2022-12-07T07:01:37;8.10;65.10
4578;DHT22;2301;47.354;8.528;2022-12-07T07:04:05;8.00;65.30
4578;DHT22;2301;47.354;8.528;2022-12-07T07:06:34;8.00;65.70
4578;DHT22;2301;47.354;8.528;2022-12-07T07:09:02;7.90;66.10
4578;DHT22;2301;47.354;8.528;2022-12-07T07:11:29;7.80;66.50
4578;DHT22;2301;47.354;8.528;2022-12-07T07:13:56;7.70;66.90
4578;DHT22;2301;47.354;8.528;2022-12-07T07:16:28;7.70;67.20
4578;DHT22;2301;47.354;8.528;2022-12-07T07:18:55;7.60;67.50
4578;DHT22;2301;47.354;8.528;2022-12-07T07:21:22;7.60;67.80
4578;DHT22;2301;47.354;8.528;2022-12-07T07:23:51;7.50;68.00
4578;DHT22;2301;47.354;8.528;2022-12-07T07:26:18;7.50;68.40
4578;DHT22;2301;47.354;8.528;2022-12-07T07:28:45;7.40;68.80
4578;DHT22;2301;47.354;8.528;2022-12-07T07:31:12;7.40;69.30
4578;DHT22;2301;47.354;8.528;2022-12-07T07:33:39;7.30;69.70
4578;DHT22;2301;47.354;8.528;2022-12-07T07:36:07;7.30;70.10
4578;DHT22;2301;47.354;8.528;2022-12-07T07:38:34;7.30;70.30
4578;DHT22;2301;47.354;8.528;2022-12-07T07:41:02;7.30;70.60
4578;DHT22;2301;47.354;8.528;2022-12-07T07:43:29;7.30;71.00
4578;DHT22;2301;47.354;8.528;2022-12-07T07:45:56;7.80;85.40
4578;DHT22;2301;47.354;8.528;2022-12-07T07:48:24;7.80;78.20
4578;DHT22;2301;47.354;8.528;2022-12-07T07:50:51;7.80;76.40
4578;DHT22;2301;47.354;8.528;2022-12-07T07:53:18;7.80;74.70
4578;DHT22;2301;47.354;8.528;2022-12-07T07:55:51;7.70;74.20
4578;DHT22;2301;47.354;8.528;2022-12-07T07:58:20;7.60;74.10
4578;DHT22;2301;47.354;8.528;2022-12-07T08:00:48;7.60;74.20
4578;DHT22;2301;47.354;8.528;2022-12-07T08:03:15;7.50;74.40
4578;DHT22;2301;47.354;8.528;2022-12-07T08:05:42;7.40;74.60
4578;DHT22;2301;47.354;8.528;2022-12-07T08:08:09;7.40;74.90
4578;DHT22;2301;47.354;8.528;2022-12-07T08:10:36;7.30;75.20
4578;DHT22;2301;47.354;8.528;2022-12-07T08:13:03;7.30;75.40
4578;DHT22;2301;47.354;8.528;2022-12-07T08:15:46;7.30;75.20
4578;DHT22;2301;47.354;8.528;2022-12-07T08:18:15;7.30;75.50
4578;DHT22;2301;47.354;8.528;2022-12-07T08:20:42;7.20;75.50
4578;DHT22;2301;47.354;8.528;2022-12-07T08:23:10;7.20;75.70
4578;DHT22;2301;47.354;8.528;2022-12-07T08:25:38;7.10;75.80
4578;DHT22;2301;47.354;8.528;2022-12-07T08:28:05;7.20;76.00
4578;DHT22;2301;47.354;8.528;2022-12-07T08:30:33;7.30;76.00
4578;DHT22;2301;47.354;8.528;2022-12-07T08:33:02;7.10;75.90
4578;DHT22;2301;47.354;8.528;2022-12-07T08:35:29;7.10;75.90
4578;DHT22;2301;47.354;8.528;2022-12-07T08:37:56;7.10;76.10
4578;DHT22;2301;47.354;8.528;2022-12-07T08:40:24;7.10;76.40
4578;DHT22;2301;47.354;8.528;2022-12-07T08:42:51;7.10;76.50
4578;DHT22;2301;47.354;8.528;2022-12-07T08:45:19;7.10;76.80
4578;DHT22;2301;47.354;8.528;2022-12-07T08:47:50;7.00;76.90
4578;DHT22;2301;47.354;8.528;2022-12-07T08:50:20;7.00;77.20
4578;DHT22;2301;47.354;8.528;2022-12-07T08:52:52;7.00;77.30
4578;DHT22;2301;47.354;8.528;2022-12-07T08:55:21;6.90;77.30
4578;DHT22;2301;47.354;8.528;2022-12-07T08:57:48;7.00;77.60
4578;DHT22;2301;47.354;8.528;2022-12-07T09:00:16;7.00;77.70
4578;DHT22;2301;47.354;8.528;2022-12-07T09:02:43;7.00;77.80
4578;DHT22;2301;47.354;8.528;2022-12-07T09:05:11;6.90;77.90
4578;DHT22;2301;47.354;8.528;2022-12-07T09:07:42;7.00;77.90
4578;DHT22;2301;47.354;8.528;2022-12-07T09:10:10;7.00;77.90
4578;DHT22;2301;47.354;8.528;2022-12-07T09:12:37;6.90;77.90
4578;DHT22;2301;47.354;8.528;2022-12-07T09:15:05;6.90;78.10
4578;DHT22;2301;47.354;8.528;2022-12-07T09:17:36;6.90;78.30
4578;DHT22;2301;47.354;8.528;2022-12-07T09:20:04;6.90;78.50
4578;DHT22;2301;47.354;8.528;2022-12-07T09:22:31;6.90;78.60
4578;DHT22;2301;47.354;8.528;2022-12-07T09:25:01;6.90;78.80
4578;DHT22;2301;47.354;8.528;2022-12-07T09:27:28;6.90;79.10
4578;DHT22;2301;47.354;8.528;2022-12-07T09:29:55;6.90;79.40
4578;DHT22;2301;47.354;8.528;2022-12-07T09:32:22;6.90;79.30
4578;DHT22;2301;47.354;8.528;2022-12-07T09:34:51;6.90;79.40
4578;DHT22;2301;47.354;8.528;2022-12-07T09:37:20;6.90;79.80
4578;DHT22;2301;47.354;8.528;2022-12-07T09:39:47;6.90;80.00
4578;DHT22;2301;47.354;8.528;2022-12-07T09:42:26;6.90;80.20
4578;DHT22;2301;47.354;8.528;2022-12-07T09:44:54;6.90;80.50
4578;DHT22;2301;47.354;8.528;2022-12-07T09:47:22;6.90;80.50
4578;DHT22;2301;47.354;8.528;2022-12-07T09:49:49;6.90;81.30
4578;DHT22;2301;47.354;8.528;2022-12-07T09:52:20;6.90;80.40
4578;DHT22;2301;47.354;8.528;2022-12-07T09:54:52;6.90;80.40
4578;DHT22;2301;47.354;8.528;2022-12-07T09:57:27;6.90;80.50
4578;DHT22;2301;47.354;8.528;2022-12-07T09:59:56;7.00;80.50
4578;DHT22;2301;47.354;8.528;2022-12-07T10:02:34;7.00;80.40
4578;DHT22;2301;47.354;8.528;2022-12-07T10:05:05;7.00;80.30
4578;DHT22;2301;47.354;8.528;2022-12-07T10:07:33;7.00;80.30
4578;DHT22;2301;47.354;8.528;2022-12-07T10:10:03;7.00;80.30
4578;DHT22;2301;47.354;8.528;2022-12-07T10:12:57;7.10;80.50
4578;DHT22;2301;47.354;8.528;2022-12-07T10:15:44;7.10;80.60
4578;DHT22;2301;47.354;8.528;2022-12-07T10:18:28;7.10;80.60
4578;DHT22;2301;47.354;8.528;2022-12-07T10:21:11;7.10;80.60
4578;DHT22;2301;47.354;8.528;2022-12-07T10:24:02;7.10;80.60
4578;DHT22;2301;47.354;8.528;2022-12-07T10:26:33;7.10;80.40
4578;DHT22;2301;47.354;8.528;2022-12-07T10:29:04;7.10;80.30
4578;DHT22;2301;47.354;8.528;2022-12-07T10:31:41;7.10;80.20
4578;DHT22;2301;47.354;8.528;2022-12-07T10:34:21;7.10;80.20
4578;DHT22;2301;47.354;8.528;2022-12-07T10:36:49;7.20;80.40
4578;DHT22;2301;47.354;8.528;2022-12-07T10:39:18;7.20;80.30
4578;DHT22;2301;47.354;8.528;2022-12-07T10:42:02;7.20;80.20
4578;DHT22;2301;47.354;8.528;2022-12-07T10:44:33;7.20;80.10
4578;DHT22;2301;47.354;8.528;2022-12-07T10:53:43;7.30;79.30
4578;DHT22;2301;47.354;8.528;2022-12-07T10:56:42;7.30;79.10
4578;DHT22;2301;47.354;8.528;2022-12-07T10:59:43;7.30;78.90
4578;DHT22;2301;47.354;8.528;2022-12-07T11:02:30;7.30;78.90
4578;DHT22;2301;47.354;8.528;2022-12-07T11:05:07;7.30;78.70
4578;DHT22;2301;47.354;8.528;2022-12-07T11:07:47;7.40;78.70
4578;DHT22;2301;47.354;8.528;2022-12-07T11:10:22;7.40;78.40
4578;DHT22;2301;47.354;8.528;2022-12-07T11:13:16;7.40;78.10
4578;DHT22;2301;47.354;8.528;2022-12-07T11:16:00;7.40;77.90
4578;DHT22;2301;47.354;8.528;2022-12-07T11:18:34;7.40;77.90
4578;DHT22;2301;47.354;8.528;2022-12-07T11:21:12;7.40;77.90
4578;DHT22;2301;47.354;8.528;2022-12-07T11:23:49;7.40;77.70
4578;DHT22;2301;47.354;8.528;2022-12-07T11:26:27;7.40;77.60
4578;DHT22;2301;47.354;8.528;2022-12-07T11:29:17;7.40;77.20
4578;DHT22;2301;47.354;8.528;2022-12-07T11:31:57;7.40;77.30
4578;DHT22;2301;47.354;8.528;2022-12-07T11:34:30;7.40;77.30
4578;DHT22;2301;47.354;8.528;2022-12-07T11:37:08;7.30;77.30
4578;DHT22;2301;47.354;8.528;2022-12-07T11:39:43;7.40;77.50
4578;DHT22;2301;47.354;8.528;2022-12-07T11:42:15;7.40;77.40
4578;DHT22;2301;47.354;8.528;2022-12-07T11:44:49;7.40;77.30
4578;DHT22;2301;47.354;8.528;2022-12-07T11:47:23;7.40;77.30
4578;DHT22;2301;47.354;8.528;2022-12-07T11:49:54;7.40;77.60
4578;DHT22;2301;47.354;8.528;2022-12-07T11:52:30;7.40;77.80
4578;DHT22;2301;47.354;8.528;2022-12-07T11:54:57;7.40;77.80
4578;DHT22;2301;47.354;8.528;2022-12-07T11:57:30;7.40;77.60
4578;DHT22;2301;47.354;8.528;2022-12-07T12:00:03;7.30;77.40
4578;DHT22;2301;47.354;8.528;2022-12-07T12:02:37;7.30;77.40
4578;DHT22;2301;47.354;8.528;2022-12-07T12:05:13;7.30;77.60
4578;DHT22;2301;47.354;8.528;2022-12-07T12:07:43;7.30;77.70
4578;DHT22;2301;47.354;8.528;2022-12-07T12:10:19;7.40;77.80
4578;DHT22;2301;47.354;8.528;2022-12-07T12:13:06;7.30;77.80
4578;DHT22;2301;47.354;8.528;2022-12-07T12:15:47;7.30;77.80
4578;DHT22;2301;47.354;8.528;2022-12-07T12:18:42;7.30;77.70
4578;DHT22;2301;47.354;8.528;2022-12-07T12:21:14;7.30;77.70
4578;DHT22;2301;47.354;8.528;2022-12-07T12:23:46;7.30;77.80
4578;DHT22;2301;47.354;8.528;2022-12-07T12:26:18;7.30;77.70
4578;DHT22;2301;47.354;8.528;2022-12-07T12:28:56;7.40;77.50
4578;DHT22;2301;47.354;8.528;2022-12-07T12:31:33;7.40;77.00
4578;DHT22;2301;47.354;8.528;2022-12-07T12:34:31;7.40;76.70
4578;DHT22;2301;47.354;8.528;2022-12-07T12:36:58;7.40;76.60
4578;DHT22;2301;47.354;8.528;2022-12-07T12:39:26;7.40;76.50
4578;DHT22;2301;47.354;8.528;2022-12-07T12:42:01;7.40;76.40
4578;DHT22;2301;47.354;8.528;2022-12-07T12:47:42;7.40;76.00
4578;DHT22;2301;47.354;8.528;2022-12-07T12:50:18;7.50;76.20
4578;DHT22;2301;47.354;8.528;2022-12-07T12:52:53;7.50;76.10
4578;DHT22;2301;47.354;8.528;2022-12-07T12:58:29;7.50;76.00
4578;DHT22;2301;47.354;8.528;2022-12-07T13:04:32;7.50;75.40
4578;DHT22;2301;47.354;8.528;2022-12-07T13:07:03;7.50;75.40
4578;DHT22;2301;47.354;8.528;2022-12-07T13:09:33;7.50;75.40
4578;DHT22;2301;47.354;8.528;2022-12-07T13:12:04;7.50;75.00
4578;DHT22;2301;47.354;8.528;2022-12-07T13:14:54;8.10;86.30
4578;DHT22;2301;47.354;8.528;2022-12-07T13:20:51;8.10;76.40
4578;DHT22;2301;47.354;8.528;2022-12-07T13:23:26;8.00;75.30
4578;DHT22;2301;47.354;8.528;2022-12-07T13:25:59;7.90;74.70
4578;DHT22;2301;47.354;8.528;2022-12-07T13:28:35;7.90;74.70
4578;DHT22;2301;47.354;8.528;2022-12-07T13:31:14;7.80;74.70
4578;DHT22;2301;47.354;8.528;2022-12-07T13:33:45;7.80;75.00
4578;DHT22;2301;47.354;8.528;2022-12-07T13:36:18;7.80;75.10
4578;DHT22;2301;47.354;8.528;2022-12-07T13:38:53;7.80;75.00
4578;DHT22;2301;47.354;8.528;2022-12-07T13:41:22;7.80;74.40
4578;DHT22;2301;47.354;8.528;2022-12-07T13:43:59;7.80;74.10
4578;DHT22;2301;47.354;8.528;2022-12-07T13:46:34;7.70;73.70
4578;DHT22;2301;47.354;8.528;2022-12-07T13:49:02;7.80;74.00
4578;DHT22;2301;47.354;8.528;2022-12-07T13:51:34;7.70;74.00
4578;DHT22;2301;47.354;8.528;2022-12-07T13:54:10;7.70;73.40
4578;DHT22;2301;47.354;8.528;2022-12-07T13:56:38;7.80;73.40
4578;DHT22;2301;47.354;8.528;2022-12-07T13:59:07;7.70;72.50
4578;DHT22;2301;47.354;8.528;2022-12-07T14:01:37;7.70;72.30
4578;DHT22;2301;47.354;8.528;2022-12-07T14:04:30;7.70;72.40
4578;DHT22;2301;47.354;8.528;2022-12-07T14:06:58;7.80;71.90
4578;DHT22;2301;47.354;8.528;2022-12-07T14:09:28;7.70;71.00
4578;DHT22;2301;47.354;8.528;2022-12-07T14:11:57;7.70;69.90
4578;DHT22;2301;47.354;8.528;2022-12-07T14:14:28;7.70;69.80
4578;DHT22;2301;47.354;8.528;2022-12-07T14:16:57;7.60;69.90
4578;DHT22;2301;47.354;8.528;2022-12-07T14:19:43;7.70;69.60
4578;DHT22;2301;47.354;8.528;2022-12-07T14:22:20;7.70;69.20
4578;DHT22;2301;47.354;8.528;2022-12-07T14:24:49;7.70;69.00
4578;DHT22;2301;47.354;8.528;2022-12-07T14:27:17;7.70;68.90
4578;DHT22;2301;47.354;8.528;2022-12-07T14:29:45;7.70;69.10
4578;DHT22;2301;47.354;8.528;2022-12-07T14:32:21;7.70;69.70
4578;DHT22;2301;47.354;8.528;2022-12-07T14:34:55;7.70;70.20
4578;DHT22;2301;47.354;8.528;2022-12-07T14:37:23;7.70;69.50
4578;DHT22;2301;47.354;8.528;2022-12-07T14:39:51;7.70;69.20
4578;DHT22;2301;47.354;8.528;2022-12-07T14:42:19;7.70;69.10
4578;DHT22;2301;47.354;8.528;2022-12-07T14:44:46;7.60;68.60
4578;DHT22;2301;47.354;8.528;2022-12-07T14:47:13;7.60;68.40
4578;DHT22;2301;47.354;8.528;2022-12-07T14:49:40;7.60;68.10
4578;DHT22;2301;47.354;8.528;2022-12-07T14:52:12;7.60;68.10
4578;DHT22;2301;47.354;8.528;2022-12-07T14:54:41;7.50;68.10
4578;DHT22;2301;47.354;8.528;2022-12-07T14:57:10;7.60;68.60
4578;DHT22;2301;47.354;8.528;2022-12-07T14:59:38;7.50;68.90
4578;DHT22;2301;47.354;8.528;2022-12-07T15:02:05;7.50;68.90
4578;DHT22;2301;47.354;8.528;2022-12-07T15:04:33;7.50;69.10
4578;DHT22;2301;47.354;8.528;2022-12-07T15:07:02;7.50;69.30
4578;DHT22;2301;47.354;8.528;2022-12-07T15:09:29;7.50;69.00
4578;DHT22;2301;47.354;8.528;2022-12-07T15:11:56;7.50;69.00
4578;DHT22;2301;47.354;8.528;2022-12-07T15:14:25;7.50;69.30
4578;DHT22;2301;47.354;8.528;2022-12-07T15:16:52;7.60;69.60
4578;DHT22;2301;47.354;8.528;2022-12-07T15:19:20;7.40;69.40
4578;DHT22;2301;47.354;8.528;2022-12-07T15:21:49;7.40;69.20
4578;DHT22;2301;47.354;8.528;2022-12-07T15:24:16;7.40;69.40
4578;DHT22;2301;47.354;8.528;2022-12-07T15:26:43;7.40;69.10
4578;DHT22;2301;47.354;8.528;2022-12-07T15:29:10;7.40;69.90
4578;DHT22;2301;47.354;8.528;2022-12-07T15:31:41;7.30;69.20
4578;DHT22;2301;47.354;8.528;2022-12-07T15:34:08;7.30;69.10
4578;DHT22;2301;47.354;8.528;2022-12-07T15:36:36;7.30;69.10
4578;DHT22;2301;47.354;8.528;2022-12-07T15:39:03;7.30;69.30
4578;DHT22;2301;47.354;8.528;2022-12-07T15:41:30;7.30;69.60
4578;DHT22;2301;47.354;8.528;2022-12-07T15:43:57;7.30;69.90
4578;DHT22;2301;47.354;8.528;2022-12-07T15:46:43;7.30;70.10
4578;DHT22;2301;47.354;8.528;2022-12-07T15:49:12;7.30;70.50
4578;DHT22;2301;47.354;8.528;2022-12-07T15:51:40;7.30;71.00
4578;DHT22;2301;47.354;8.528;2022-12-07T15:54:08;7.30;71.50
4578;DHT22;2301;47.354;8.528;2022-12-07T15:56:38;7.30;71.60
4578;DHT22;2301;47.354;8.528;2022-12-07T15:59:05;7.30;71.80
4578;DHT22;2301;47.354;8.528;2022-12-07T16:01:32;7.30;72.00
4578;DHT22;2301;47.354;8.528;2022-12-07T16:04:01;7.30;72.00
4578;DHT22;2301;47.354;8.528;2022-12-07T16:06:27;7.30;72.10
4578;DHT22;2301;47.354;8.528;2022-12-07T16:08:54;7.20;72.10
4578;DHT22;2301;47.354;8.528;2022-12-07T16:11:22;7.20;72.60
4578;DHT22;2301;47.354;8.528;2022-12-07T16:13:49;7.20;72.90
4578;DHT22;2301;47.354;8.528;2022-12-07T16:16:18;7.10;72.80
4578;DHT22;2301;47.354;8.528;2022-12-07T16:18:46;7.10;72.70
4578;DHT22;2301;47.354;8.528;2022-12-07T16:21:16;7.10;72.70
4578;DHT22;2301;47.354;8.528;2022-12-07T16:23:43;7.10;72.70
4578;DHT22;2301;47.354;8.528;2022-12-07T16:26:12;7.10;72.80
4578;DHT22;2301;47.354;8.528;2022-12-07T16:28:40;7.00;72.80
4578;DHT22;2301;47.354;8.528;2022-12-07T16:31:09;7.00;72.90
4578;DHT22;2301;47.354;8.528;2022-12-07T16:33:39;7.00;73.40
4578;DHT22;2301;47.354;8.528;2022-12-07T16:36:08;7.00;73.40
4578;DHT22;2301;47.354;8.528;2022-12-07T16:38:38;7.00;73.70
4578;DHT22;2301;47.354;8.528;2022-12-07T16:41:06;7.00;73.90
4578;DHT22;2301;47.354;8.528;2022-12-07T16:43:33;7.00;74.10
4578;DHT22;2301;47.354;8.528;2022-12-07T16:46:01;7.00;74.40
4578;DHT22;2301;47.354;8.528;2022-12-07T16:48:28;6.90;74.60
4578;DHT22;2301;47.354;8.528;2022-12-07T16:50:55;6.90;74.60
4578;DHT22;2301;47.354;8.528;2022-12-07T16:53:24;6.90;74.70
4578;DHT22;2301;47.354;8.528;2022-12-07T16:55:52;6.90;74.80
4578;DHT22;2301;47.354;8.528;2022-12-07T16:58:20;6.90;74.90
4578;DHT22;2301;47.354;8.528;2022-12-07T17:00:47;6.90;74.90